Time;durP1;ratioP1;P1;durP2;ratioP2;P2;SDS_P1;SDS_P2;PMS_P1;PMS_P2;Temp;Humidity;BMP_temperature;BMP_pressure;BME280_temperature;BME280_humidity;BME280_pressure;Samples;Min_cycle;Max_cycle;Signal;HPM_P1;HPM_P2
2022/10/02 00:01:11;;;;;;;2.20;2.08;;;;;;;11.61;99.91;99006.22;5067931;28;20484;-73
2022/10/02 00:03:40;;;;;;;0.40;0.40;;;;;;;11.55;99.70;99002.06;5048951;28;20028;-73
2022/10/02 00:06:17;;;;;;;0.40;0.40;;;;;;;11.58;99.98;99007.16;5067703;28;20029;-74
2022/10/02 00:08:45;;;;;;;0.40;0.40;;;;;;;11.50;99.50;99007.44;5067656;28;20025;-73
2022/10/02 00:11:22;;;;;;;0.50;0.50;;;;;;;11.52;99.61;99010.84;5067598;28;20029;-72
2022/10/02 00:13:54;;;;;;;1.20;1.20;;;;;;;11.53;99.43;99019.50;5067605;28;20025;-73
2022/10/02 00:16:25;;;;;;;;;;;;;;;11.53;98.97;99016.88;5067666;28;20028;-74
2022/10/02 00:18:53;;;;;;;0.40;0.40;;;;;;;11.45;98.89;99018.91;5067052;28;19916;-73
2022/10/02 00:21:27;;;;;;;0.40;0.40;;;;;;;11.38;99.06;99013.06;5067021;28;20076;-73
2022/10/02 00:24:05;;;;;;;5.68;0.77;;;;;;;11.44;98.91;99015.44;5067526;28;20036;-74
2022/10/02 00:26:38;;;;;;;0.47;0.47;;;;;;;11.40;98.90;99014.72;5067312;28;20028;-73
2022/10/02 00:29:16;;;;;;;0.30;0.30;;;;;;;11.39;98.72;99014.75;5049413;28;20420;-73
2022/10/02 00:31:50;;;;;;;0.40;0.40;;;;;;;11.36;98.75;99018.31;5067302;28;20040;-72
2022/10/02 00:34:37;;;;;;;0.40;0.40;;;;;;;11.37;98.23;99027.78;5049029;28;20429;-70
2022/10/02 00:37:29;;;;;;;0.30;0.30;;;;;;;11.37;98.33;99025.19;5066904;28;20017;-69
2022/10/02 00:40:32;;;;;;;0.35;0.35;;;;;;;11.35;98.18;99021.81;5066981;28;20028;-69
2022/10/02 00:43:03;;;;;;;0.50;0.50;;;;;;;11.37;97.88;99029.56;5066856;28;20096;-69
2022/10/02 00:46:06;;;;;;;0.50;0.50;;;;;;;11.38;97.95;99021.72;5066986;28;20060;-69
2022/10/02 00:48:31;;;;;;;;;;;;;;;11.50;97.49;99024.78;5067255;28;20020;-69
2022/10/02 00:51:21;;;;;;;0.30;0.30;;;;;;;11.46;97.77;99031.84;5066796;28;19908;-71
2022/10/02 00:54:10;;;;;;;2.47;2.30;;;;;;;11.44;97.87;99036.22;5066392;28;20261;-71
2022/10/02 00:57:04;;;;;;;0.30;0.30;;;;;;;11.52;97.82;99038.56;5066710;28;20017;-71
2022/10/02 00:59:53;;;;;;;0.40;0.40;;;;;;;11.51;97.89;99037.75;5048753;28;20021;-70
2022/10/02 01:02:30;;;;;;;0.40;0.40;;;;;;;11.51;97.71;99039.47;5066687;28;20052;-72
2022/10/02 01:04:57;;;;;;;0.50;0.50;;;;;;;11.54;97.62;99041.97;5064934;28;20025;-72
2022/10/02 01:07:23;;;;;;;0.40;0.40;;;;;;;11.57;97.59;99048.81;5066426;28;20029;-73
2022/10/02 01:09:49;;;;;;;0.50;0.50;;;;;;;11.52;97.61;99033.38;5066236;28;20290;-74
2022/10/02 01:12:14;;;;;;;0.40;0.40;;;;;;;11.57;97.39;99043.59;5066272;28;20099;-75
2022/10/02 01:14:40;;;;;;;0.30;0.30;;;;;;;11.58;97.27;99042.72;5065213;28;20052;-74
2022/10/02 01:17:30;;;;;;;0.38;0.38;;;;;;;11.59;97.42;99052.19;5066454;28;20029;-75
2022/10/02 01:19:57;;;;;;;0.30;0.30;;;;;;;11.50;96.79;99037.78;5047627;28;20111;-77
2022/10/02 01:22:25;;;;;;;0.40;0.40;;;;;;;11.60;96.99;99059.94;5066426;28;20035;-77
2022/10/02 01:24:59;;;;;;;0.40;0.40;;;;;;;11.56;96.83;99058.38;5048131;28;20021;-75
2022/10/02 01:27:25;;;;;;;0.40;0.40;;;;;;;11.63;96.36;99061.59;5065849;28;20033;-74
2022/10/02 01:29:58;;;;;;;0.40;0.40;;;;;;;11.59;96.38;99071.25;5066638;28;20025;-73
2022/10/02 01:32:25;;;;;;;0.40;0.40;;;;;;;11.58;96.27;99069.53;5066299;28;20080;-71
2022/10/02 01:34:55;;;;;;;0.40;0.40;;;;;;;11.59;95.96;99063.47;5065894;28;20024;-69
2022/10/02 01:37:24;;;;;;;6.28;4.13;;;;;;;11.59;96.15;99068.66;5065958;28;20112;-68
2022/10/02 01:39:51;;;;;;;0.50;0.50;;;;;;;11.62;95.95;99071.16;5065820;28;20074;-69
2022/10/02 01:42:16;;;;;;;0.40;0.40;;;;;;;11.56;96.13;99070.50;5065542;28;20025;-69
2022/10/02 01:44:44;;;;;;;0.40;0.40;;;;;;;11.62;95.92;99078.09;5065870;28;20089;-69
2022/10/02 01:47:18;;;;;;;0.40;0.40;;;;;;;11.56;95.77;99075.69;5065356;28;20025;-69
2022/10/02 01:49:49;;;;;;;1.42;1.42;;;;;;;11.61;95.52;99081.59;5064923;28;20060;-69
2022/10/02 01:52:19;;;;;;;0.40;0.40;;;;;;;11.64;95.54;99079.75;5065882;28;20044;-70
2022/10/02 01:54:59;;;;;;;8.25;3.80;;;;;;;11.68;95.53;99082.25;5065566;28;20029;-70
2022/10/02 01:57:49;;;;;;;0.73;0.73;;;;;;;11.64;95.77;99084.09;5047738;28;20032;-70
2022/10/02 02:00:16;;;;;;;0.40;0.40;;;;;;;11.61;95.36;99082.44;5065536;28;20025;-69
2022/10/02 02:03:07;;;;;;;0.40;0.40;;;;;;;11.62;95.46;99088.50;5065370;28;20020;-69
2022/10/02 02:06:17;;;;;;;0.38;0.38;;;;;;;11.63;95.21;99098.84;5065379;28;20108;-68
2022/10/02 02:09:08;;;;;;;0.40;0.40;;;;;;;11.64;95.28;99105.75;5020734;28;20040;-68
2022/10/02 02:11:38;;;;;;;0.40;0.40;;;;;;;11.60;95.25;99104.13;5065656;28;20040;-68
2022/10/02 02:14:09;;;;;;;0.40;0.40;;;;;;;11.63;95.24;99101.44;5065608;28;20021;-68
2022/10/02 02:16:43;;;;;;;0.30;0.30;;;;;;;11.64;95.12;99105.75;5065274;28;20025;-68
2022/10/02 02:19:12;;;;;;;0.40;0.40;;;;;;;11.63;95.27;99097.97;5065208;28;20445;-69
2022/10/02 02:21:46;;;;;;;0.47;0.47;;;;;;;11.61;95.21;99103.22;5060693;28;20133;-68
2022/10/02 02:24:21;;;;;;;0.40;0.40;;;;;;;11.58;95.08;99102.50;5027396;28;20068;-68
2022/10/02 02:26:48;;;;;;;0.40;0.40;;;;;;;11.52;95.13;99099.19;5044983;28;20021;-68
2022/10/02 02:29:16;;;;;;;0.40;0.40;;;;;;;11.56;95.22;99107.75;5045160;28;20473;-68
2022/10/02 02:31:48;;;;;;;0.40;0.40;;;;;;;11.52;95.07;99099.19;5045211;28;20066;-68
2022/10/02 02:34:22;;;;;;;0.40;0.40;;;;;;;11.51;95.37;99113.09;5045176;28;20021;-68
2022/10/02 02:36:51;;;;;;;0.50;0.50;;;;;;;11.47;95.23;99102.88;5027260;28;20056;-68
2022/10/02 02:39:25;;;;;;;0.40;0.40;;;;;;;11.38;95.31;99111.78;5045113;28;20051;-68
2022/10/02 02:41:57;;;;;;;8.13;5.35;;;;;;;11.46;95.12;99115.00;5045163;28;20053;-68
2022/10/02 02:44:30;;;;;;;0.50;0.50;;;;;;;11.46;95.06;99108.94;5045214;28;20029;-69
2022/10/02 02:47:12;;;;;;;1.15;1.15;;;;;;;11.46;94.89;99116.75;5027417;28;20033;-68
2022/10/02 02:49:54;;;;;;;0.40;0.40;;;;;;;11.47;94.72;99115.84;5045042;28;20044;-68
2022/10/02 02:52:29;;;;;;;0.50;0.50;;;;;;;11.45;94.62;99117.66;5045243;28;20052;-69
2022/10/02 02:55:03;;;;;;;0.40;0.40;;;;;;;11.46;94.76;99122.78;5045129;28;20059;-69
2022/10/02 02:57:50;;;;;;;0.30;0.30;;;;;;;11.48;94.64;99125.34;5045030;28;20018;-69
2022/10/02 03:00:16;;;;;;;0.40;0.40;;;;;;;11.50;94.92;99128.75;5045064;28;20017;-70
2022/10/02 03:02:41;;;;;;;0.40;0.40;;;;;;;11.52;95.06;99124.34;5044963;28;20025;-69
2022/10/02 03:05:15;;;;;;;0.40;0.40;;;;;;;11.54;94.72;99122.53;5045420;28;20081;-69
2022/10/02 03:07:48;;;;;;;0.40;0.40;;;;;;;11.51;94.85;99115.72;5045305;28;20021;-69
2022/10/02 03:10:20;;;;;;;0.40;0.40;;;;;;;11.50;94.17;99123.56;5044727;28;20316;-70
2022/10/02 03:12:57;;;;;;;0.50;0.50;;;;;;;11.51;94.34;99112.25;5045073;28;20045;-70
2022/10/02 03:15:33;;;;;;;0.40;0.40;;;;;;;11.56;94.49;99112.94;5044907;28;20111;-70
2022/10/02 03:18:06;;;;;;;0.40;0.40;;;;;;;11.49;94.45;99106.25;5044679;28;20036;-70
2022/10/02 03:20:40;;;;;;;0.60;0.60;;;;;;;11.52;94.40;99117.41;5053185;28;20116;-69
2022/10/02 03:23:31;;;;;;;0.40;0.40;;;;;;;11.48;94.18;99120.16;5064783;28;20035;-70
2022/10/02 03:26:03;;;;;;;0.40;0.40;;;;;;;11.48;94.68;99125.34;5046770;28;20079;-70
2022/10/02 03:28:47;;;;;;;0.45;0.45;;;;;;;11.52;93.95;99125.19;5064525;28;20029;-70
2022/10/02 03:31:14;;;;;;;0.80;0.80;;;;;;;11.46;94.25;99128.00;5064589;28;20102;-70
2022/10/02 03:33:42;;;;;;;0.40;0.40;;;;;;;11.52;94.23;99127.78;5064358;28;20029;-70
2022/10/02 03:36:10;;;;;;;0.40;0.40;;;;;;;11.48;94.40;99131.41;5064479;28;20025;-69
2022/10/02 03:38:37;;;;;;;0.40;0.40;;;;;;;11.52;94.19;99133.00;5066881;28;20024;-70
2022/10/02 03:41:02;;;;;;;0.40;0.40;;;;;;;11.49;94.20;99132.22;5068473;28;20437;-71
2022/10/02 03:43:29;;;;;;;0.40;0.40;;;;;;;11.49;94.18;99133.09;5068391;28;20032;-70
2022/10/02 03:45:55;;;;;;;0.40;0.40;;;;;;;11.45;93.58;99135.84;5068331;28;20025;-70
2022/10/02 03:48:21;;;;;;;0.50;0.50;;;;;;;11.47;93.17;99129.69;5067729;28;20044;-70
2022/10/02 03:50:49;;;;;;;0.40;0.40;;;;;;;11.43;93.43;99129.84;5068073;28;20052;-70
2022/10/02 03:53:18;;;;;;;0.40;0.40;;;;;;;11.41;93.04;99135.09;5068195;28;20060;-70
2022/10/02 03:55:49;;;;;;;0.40;0.40;;;;;;;11.42;92.46;99134.19;5067993;28;20029;-71
2022/10/02 03:58:17;;;;;;;0.50;0.50;;;;;;;11.45;92.63;99138.44;5067861;28;20032;-70
2022/10/02 04:00:54;;;;;;;0.40;0.40;;;;;;;11.45;92.45;99131.50;5067854;28;20021;-70
2022/10/02 04:03:24;;;;;;;0.40;0.40;;;;;;;11.50;92.79;99139.16;5067686;28;20076;-70
2022/10/02 04:05:50;;;;;;;0.40;0.40;;;;;;;11.50;92.26;99134.78;5067708;28;20025;-69
2022/10/02 04:08:24;;;;;;;1.48;1.38;;;;;;;11.55;92.81;99139.81;5067645;28;20071;-70
2022/10/02 04:11:12;;;;;;;11.27;4.25;;;;;;;11.58;92.49;99136.28;5067659;28;20060;-70
2022/10/02 04:13:44;;;;;;;0.40;0.40;;;;;;;11.56;92.53;99138.94;5067842;28;20115;-70
2022/10/02 04:16:26;;;;;;;0.50;0.50;;;;;;;11.63;93.11;99135.22;5067588;28;20029;-70
2022/10/02 04:18:57;;;;;;;0.60;0.60;;;;;;;11.63;93.31;99135.22;5067491;28;20036;-69
2022/10/02 04:21:35;;;;;;;0.40;0.40;;;;;;;11.64;93.16;99146.47;5067405;28;20080;-70
2022/10/02 04:24:13;;;;;;;0.40;0.40;;;;;;;11.58;92.39;99144.09;5067368;28;20025;-69
2022/10/02 04:26:44;;;;;;;0.40;0.40;;;;;;;11.56;92.70;99145.88;5067375;28;20029;-69
2022/10/02 04:29:19;;;;;;;0.40;0.40;;;;;;;11.57;92.23;99137.16;5067236;28;20021;-69
2022/10/02 04:31:51;;;;;;;0.40;0.40;;;;;;;11.63;92.85;99150.81;5049420;28;20024;-69
2022/10/02 04:34:16;;;;;;;0.32;0.32;;;;;;;11.69;92.92;99154.13;5067082;28;20056;-73
2022/10/02 04:37:06;;;;;;;0.40;0.40;;;;;;;11.63;93.03;99149.97;5067172;28;20358;-70
2022/10/02 04:39:34;;;;;;;0.40;0.40;;;;;;;11.68;92.64;99161.06;5067227;28;20048;-69
2022/10/02 04:42:37;;;;;;;0.40;0.40;;;;;;;11.70;92.04;99163.63;5067326;28;20448;-70
2022/10/02 04:45:39;;;;;;;0.50;0.50;;;;;;;11.70;92.41;99155.81;4985860;28;20027;-70
2022/10/02 04:48:15;;;;;;;0.32;0.32;;;;;;;11.72;92.06;99162.69;4961774;28;20053;-71
2022/10/02 04:50:48;;;;;;;0.40;0.40;;;;;;;11.74;92.26;99162.63;4985713;28;20039;-70
2022/10/02 04:53:23;;;;;;;0.40;0.40;;;;;;;11.72;92.12;99157.47;4985746;28;20045;-70
2022/10/02 04:56:13;;;;;;;0.32;0.32;;;;;;;11.78;92.79;99162.47;4985589;28;20046;-69
2022/10/02 04:59:18;;;;;;;1.08;1.08;;;;;;;11.70;92.34;99166.22;4985478;28;20123;-70
2022/10/02 05:02:14;;;;;;;0.30;0.30;;;;;;;11.71;92.50;99170.53;4985276;28;20069;-70
2022/10/02 05:05:12;;;;;;;0.40;0.40;;;;;;;11.71;92.71;99163.56;4985413;28;20026;-69
2022/10/02 05:08:05;;;;;;;0.40;0.40;;;;;;;11.70;92.60;99171.41;4908984;29;20083;-69
2022/10/02 05:10:45;;;;;;;0.40;0.40;;;;;;;11.70;92.48;99177.47;4908930;29;20103;-69
2022/10/02 05:13:31;;;;;;;0.40;0.40;;;;;;;11.70;92.71;99184.41;4909098;29;20037;-70
2022/10/02 05:16:16;;;;;;;0.40;0.40;;;;;;;11.69;92.44;99180.13;4940133;29;20065;-70
2022/10/02 05:18:57;;;;;;;0.40;0.40;;;;;;;11.69;92.90;99185.31;4965634;29;20039;-69
2022/10/02 05:21:46;;;;;;;0.40;0.40;;;;;;;11.72;92.90;99186.09;4965795;29;20043;-70
2022/10/02 05:24:39;;;;;;;0.40;0.40;;;;;;;11.65;92.60;99185.44;4965764;29;20035;-70
2022/10/02 05:27:23;;;;;;;0.40;0.40;;;;;;;11.60;92.49;99187.31;4965766;29;20054;-70
2022/10/02 05:29:57;;;;;;;0.40;0.40;;;;;;;11.59;92.60;99192.56;4965790;29;20056;-70
2022/10/02 05:32:35;;;;;;;0.40;0.40;;;;;;;11.55;92.59;99189.22;4965754;29;20043;-69
2022/10/02 05:35:25;;;;;;;0.40;0.40;;;;;;;11.49;92.55;99189.41;4949308;29;20098;-70
2022/10/02 05:38:06;;;;;;;0.40;0.40;;;;;;;11.48;92.80;99192.91;4965572;29;20398;-70
2022/10/02 05:41:01;;;;;;;0.40;0.40;;;;;;;11.51;92.71;99195.41;4965649;29;20342;-70
2022/10/02 05:43:35;;;;;;;0.40;0.40;;;;;;;11.51;92.74;99198.00;4966163;29;20135;-70
2022/10/02 05:46:24;;;;;;;0.50;0.50;;;;;;;11.48;92.67;99195.50;5066591;28;20017;-70
2022/10/02 05:48:59;;;;;;;0.73;0.73;;;;;;;11.49;92.91;99199.81;5055519;28;20029;-70
2022/10/02 05:51:44;;;;;;;0.40;0.40;;;;;;;11.50;92.77;99201.53;5065749;28;20447;-70
2022/10/02 05:54:30;;;;;;;0.40;0.40;;;;;;;11.46;92.57;99194.69;5065882;28;20021;-69
2022/10/02 05:57:26;;;;;;;0.40;0.40;;;;;;;11.47;92.36;99197.25;5065597;28;20029;-69
2022/10/02 05:59:56;;;;;;;0.30;0.30;;;;;;;11.46;92.23;99210.28;5065578;28;20082;-69
2022/10/02 06:02:41;;;;;;;0.40;0.40;;;;;;;11.47;91.12;99217.22;5065634;28;20021;-69
2022/10/02 06:05:42;;;;;;;0.40;0.40;;;;;;;11.51;90.91;99224.00;5065313;28;20051;-69
2022/10/02 06:08:12;;;;;;;0.40;0.40;;;;;;;11.56;90.51;99219.53;5065581;28;20029;-70
2022/10/02 06:10:44;;;;;;;0.40;0.40;;;;;;;11.56;91.32;99221.25;5065604;28;20021;-70
2022/10/02 06:13:19;;;;;;;0.45;0.45;;;;;;;11.69;90.65;99232.13;5065603;28;20028;-70
2022/10/02 06:15:50;;;;;;;0.40;0.40;;;;;;;12.10;91.04;99231.69;5065562;28;20021;-69
2022/10/02 06:18:21;;;;;;;0.50;0.50;;;;;;;12.74;92.78;99232.94;5065564;28;20049;-69
2022/10/02 06:21:01;;;;;;;0.40;0.40;;;;;;;13.41;91.69;99242.63;5064990;28;20041;-70
2022/10/02 06:23:33;;;;;;;4.50;3.83;;;;;;;14.13;92.44;99240.66;5065332;28;20029;-70
2022/10/02 06:26:03;;;;;;;0.40;0.40;;;;;;;14.86;93.78;99247.13;5065420;28;20044;-70
2022/10/02 06:28:41;;;;;;;0.30;0.30;;;;;;;15.24;93.67;99242.81;5065300;28;20029;-69
2022/10/02 06:31:31;;;;;;;0.30;0.30;;;;;;;15.24;93.67;99245.44;5065458;28;20045;-69
2022/10/02 06:33:56;;;;;;;0.30;0.30;;;;;;;14.97;92.98;99249.25;5064976;28;20029;-69
2022/10/02 06:36:28;;;;;;;0.40;0.40;;;;;;;14.66;91.01;99252.38;5047356;28;20051;-68
2022/10/02 06:39:16;;;;;;;0.32;0.32;;;;;;;14.48;91.18;99249.66;5065127;28;20017;-69
2022/10/02 06:41:56;;;;;;;0.30;0.30;;;;;;;14.22;90.78;99254.22;5065280;28;20029;-69
2022/10/02 06:44:46;;;;;;;1.67;1.58;;;;;;;14.02;90.09;99252.44;5065139;28;20029;-69
2022/10/02 06:47:21;;;;;;;0.50;0.50;;;;;;;13.85;89.03;99262.66;5064954;28;20021;-68
2022/10/02 06:50:01;;;;;;;0.30;0.30;;;;;;;13.77;88.90;99259.50;5047068;28;20100;-69
2022/10/02 06:52:47;;;;;;;0.30;0.30;;;;;;;13.58;88.08;99269.81;5065394;28;20025;-69
2022/10/02 06:55:19;;;;;;;0.38;0.38;;;;;;;13.47;88.92;99268.47;5065146;28;20077;-69
2022/10/02 06:58:02;;;;;;;0.40;0.40;;;;;;;13.44;88.22;99268.59;5064921;28;20020;-70
2022/10/02 07:00:33;;;;;;;0.40;0.40;;;;;;;13.41;89.21;99265.22;5065017;28;20048;-69
2022/10/02 07:03:36;;;;;;;0.40;0.40;;;;;;;13.35;89.05;99267.19;5064961;28;20492;-69
2022/10/02 07:06:39;;;;;;;0.60;0.60;;;;;;;13.22;88.76;99265.94;5064972;28;20481;-72
2022/10/02 07:09:25;;;;;;;0.40;0.40;;;;;;;13.08;88.20;99269.91;4983577;28;20035;-70
2022/10/02 07:12:07;;;;;;;0.30;0.30;;;;;;;13.04;88.27;99260.50;4985058;28;20481;-72
2022/10/02 07:15:11;;;;;;;0.60;0.60;;;;;;;12.92;88.70;99264.44;4988033;28;20037;-70
2022/10/02 07:18:08;;;;;;;0.45;0.45;;;;;;;12.97;88.29;99274.69;4987570;28;20027;-70
2022/10/02 07:20:53;;;;;;;0.30;0.30;;;;;;;12.96;88.24;99275.56;4987142;28;20034;-70
2022/10/02 07:23:40;;;;;;;0.40;0.40;;;;;;;12.89;88.72;99277.56;4977451;28;20085;-68
2022/10/02 07:26:27;;;;;;;0.30;0.30;;;;;;;12.98;88.97;99282.44;4987768;28;20094;-69
2022/10/02 07:28:58;;;;;;;0.30;0.30;;;;;;;13.02;88.61;99278.81;4990266;28;20138;-71
2022/10/02 07:31:35;;;;;;;0.40;0.40;;;;;;;13.01;89.00;99284.06;4982711;28;20015;-71
2022/10/02 07:34:11;;;;;;;1.13;1.13;;;;;;;12.97;88.42;99278.13;4987966;28;20038;-69
2022/10/02 07:37:16;;;;;;;0.30;0.30;;;;;;;12.92;88.15;99276.59;4987973;28;20034;-70
2022/10/02 07:40:15;;;;;;;0.40;0.40;;;;;;;12.91;87.89;99282.72;4987516;28;20035;-69
2022/10/02 07:43:07;;;;;;;2.75;1.25;;;;;;;12.97;86.62;99287.72;4988180;28;20035;-69
2022/10/02 07:45:43;;;;;;;3.80;3.50;;;;;;;13.06;86.51;99291.72;5036302;28;20092;-70
2022/10/02 07:48:34;;;;;;;0.30;0.30;;;;;;;13.12;84.56;99300.16;5068367;28;20091;-70
2022/10/02 07:54:14;;;;;;;0.40;0.40;;;;;;;13.33;84.89;99296.81;5068912;28;20089;-70
2022/10/02 07:56:42;;;;;;;0.40;0.40;;;;;;;13.32;85.34;99300.34;5069016;28;20125;-70
2022/10/02 07:59:15;;;;;;;0.40;0.40;;;;;;;13.39;84.39;99302.66;5068330;28;20033;-70
2022/10/02 08:01:42;;;;;;;0.40;0.40;;;;;;;13.44;84.90;99304.22;5068595;28;20480;-69
2022/10/02 08:04:18;;;;;;;0.30;0.30;;;;;;;13.56;84.92;99311.59;5068081;28;20040;-70
2022/10/02 08:06:45;;;;;;;0.30;0.30;;;;;;;13.79;85.62;99314.22;5068398;28;20033;-69
2022/10/02 08:09:21;;;;;;;0.40;0.40;;;;;;;13.83;85.84;99310.59;5068246;28;20028;-69
2022/10/02 08:11:51;;;;;;;0.32;0.32;;;;;;;13.86;85.13;99313.94;5068291;28;20021;-70
2022/10/02 08:14:27;;;;;;;0.30;0.30;;;;;;;13.87;85.58;99310.41;5068071;28;20024;-70
2022/10/02 08:16:56;;;;;;;0.30;0.30;;;;;;;13.82;86.17;99301.91;5067511;28;20517;-70
2022/10/02 08:19:44;;;;;;;1.42;1.27;;;;;;;13.92;84.61;99319.81;5067774;28;20036;-69
2022/10/02 08:22:33;;;;;;;0.30;0.30;;;;;;;14.05;85.64;99314.94;5067829;28;20072;-69
2022/10/02 08:25:36;;;;;;;0.35;0.35;;;;;;;14.15;85.70;99326.72;5067507;28;20025;-69
2022/10/02 08:28:18;;;;;;;2.53;2.38;;;;;;;14.23;85.19;99321.19;5065904;28;20037;-69
2022/10/02 08:30:44;;;;;;;0.40;0.40;;;;;;;14.33;85.49;99332.94;5067976;28;20036;-70
2022/10/02 08:33:16;;;;;;;0.85;0.85;;;;;;;14.47;84.45;99321.91;5067394;28;20025;-69
2022/10/02 08:35:53;;;;;;;0.30;0.30;;;;;;;14.81;83.02;99326.66;5067262;28;20306;-71
2022/10/02 08:38:34;;;;;;;5.43;1.90;;;;;;;15.11;82.59;99332.28;5068085;28;20041;-69
2022/10/02 08:41:30;;;;;;;0.30;0.30;;;;;;;15.43;82.53;99331.72;5067458;28;20043;-70
2022/10/02 08:44:40;;;;;;;0.30;0.30;;;;;;;15.52;83.26;99325.25;5067622;28;20445;-69
2022/10/02 08:47:32;;;;;;;0.30;0.30;;;;;;;15.51;83.54;99338.38;5067195;28;20060;-70
2022/10/02 08:50:21;;;;;;;0.40;0.40;;;;;;;15.44;83.93;99345.66;5066858;28;20048;-69
2022/10/02 08:52:59;;;;;;;0.30;0.30;;;;;;;15.39;84.79;99351.09;5066978;28;20031;-73
2022/10/02 08:55:53;;;;;;;0.30;0.30;;;;;;;15.28;84.67;99348.13;5067020;28;20025;-73
2022/10/02 08:58:46;;;;;;;0.30;0.30;;;;;;;15.15;84.87;99360.88;5066982;28;20044;-74
2022/10/02 09:01:34;;;;;;;0.40;0.40;;;;;;;15.06;83.78;99362.16;5048966;28;20021;-73
2022/10/02 09:03:59;;;;;;;0.30;0.30;;;;;;;14.94;83.94;99367.00;5066721;28;20025;-73
2022/10/02 09:06:49;;;;;;;0.30;0.30;;;;;;;14.89;84.27;99374.19;5066936;28;20117;-73
2022/10/02 09:09:33;;;;;;;0.40;0.40;;;;;;;14.90;84.19;99378.50;5066568;28;20024;-73
2022/10/02 09:12:20;;;;;;;0.30;0.30;;;;;;;14.83;83.87;99380.53;5066948;28;20043;-74
2022/10/02 09:14:57;;;;;;;0.30;0.30;;;;;;;14.74;83.88;99391.34;5066579;28;20024;-74
2022/10/02 09:17:41;;;;;;;0.30;0.30;;;;;;;14.66;83.54;99388.19;5066292;28;20024;-74
2022/10/02 09:20:28;;;;;;;0.30;0.30;;;;;;;14.83;84.15;99384.91;5066209;28;20440;-75
2022/10/02 09:23:18;;;;;;;0.30;0.30;;;;;;;15.08;84.12;99394.31;5048533;28;20070;-74
2022/10/02 09:26:02;;;;;;;0.30;0.30;;;;;;;15.60;83.17;99398.97;5066337;28;20040;-75
2022/10/02 09:28:55;;;;;;;0.30;0.30;;;;;;;15.66;81.50;99399.59;5066136;28;20028;-74
2022/10/02 09:31:52;;;;;;;0.30;0.30;;;;;;;15.49;81.31;99404.69;5065693;28;20028;-74
2022/10/02 09:34:39;;;;;;;0.30;0.30;;;;;;;15.49;81.57;99407.28;5066204;28;20064;-76
2022/10/02 09:37:23;;;;;;;0.30;0.30;;;;;;;15.48;81.96;99412.59;5065916;28;20021;-74
2022/10/02 09:40:10;;;;;;;0.30;0.30;;;;;;;15.42;82.47;99412.88;5066373;28;20085;-73
2022/10/02 09:43:13;;;;;;;0.30;0.30;;;;;;;15.34;81.35;99414.06;5066319;28;20025;-73
2022/10/02 09:45:57;;;;;;;0.30;0.30;;;;;;;15.13;81.41;99423.69;5066123;28;20020;-74
2022/10/02 09:48:39;;;;;;;0.30;0.30;;;;;;;15.07;82.27;99426.56;5065839;28;20024;-73
2022/10/02 09:51:17;;;;;;;1.30;0.52;;;;;;;15.14;82.56;99435.00;5066025;28;20055;-73
2022/10/02 09:53:57;;;;;;;0.30;0.30;;;;;;;15.19;81.77;99428.66;5064465;28;20057;-73
2022/10/02 09:56:50;;;;;;;0.73;0.73;;;;;;;15.20;81.73;99426.91;5065827;28;20045;-74
2022/10/02 09:59:34;;;;;;;0.32;0.32;;;;;;;15.04;78.86;99435.41;5065680;28;20099;-74
2022/10/02 10:02:05;;;;;;;0.57;0.57;;;;;;;14.94;79.28;99437.56;5066017;28;20131;-74
2022/10/02 10:04:49;;;;;;;0.47;0.47;;;;;;;14.93;80.44;99454.16;5047463;28;20056;-73
2022/10/02 10:07:54;;;;;;;0.30;0.30;;;;;;;14.98;79.97;99451.34;5065691;28;20033;-74
2022/10/02 10:10:38;;;;;;;0.40;0.40;;;;;;;14.98;80.26;99452.19;4984385;28;20044;-74
2022/10/02 10:13:31;;;;;;;0.30;0.30;;;;;;;15.10;80.51;99448.22;4984430;28;20043;-75
2022/10/02 10:16:10;;;;;;;0.30;0.30;;;;;;;15.05;80.47;99457.19;4984670;28;20035;-73
2022/10/02 10:18:45;;;;;;;0.40;0.40;;;;;;;15.10;79.84;99458.66;4984521;28;20034;-73
2022/10/02 10:21:29;;;;;;;0.30;0.30;;;;;;;15.09;80.36;99459.59;4984305;28;20047;-73
2022/10/02 10:24:09;;;;;;;0.40;0.40;;;;;;;15.00;79.12;99459.97;4984563;28;20026;-74
2022/10/02 10:27:06;;;;;;;0.30;0.30;;;;;;;14.82;78.55;99472.91;4984343;28;20030;-71
2022/10/02 10:30:25;;;;;;;0.40;0.40;;;;;;;14.73;79.42;99465.38;4984258;28;20035;-73
2022/10/02 10:33:07;;;;;;;0.30;0.30;;;;;;;14.72;79.54;99474.16;4945677;29;20035;-73
2022/10/02 10:35:35;;;;;;;0.40;0.40;;;;;;;14.73;79.77;99479.31;4945514;29;20127;-72
2022/10/02 10:38:33;;;;;;;0.30;0.30;;;;;;;14.82;79.92;99483.38;4945830;29;20290;-73
2022/10/02 10:42:01;;;;;;;1.05;1.05;;;;;;;14.87;80.16;99489.22;4945649;29;20114;-74
2022/10/02 10:44:51;;;;;;;0.40;0.40;;;;;;;15.26;80.11;99501.59;4945889;29;20035;-74
2022/10/02 10:47:27;;;;;;;0.30;0.30;;;;;;;15.47;77.91;99494.59;4947225;29;20031;-73
2022/10/02 10:50:20;;;;;;;0.30;0.30;;;;;;;15.73;78.50;99503.06;4948923;29;20043;-73
2022/10/02 10:52:56;;;;;;;0.30;0.30;;;;;;;15.70;77.37;99511.06;4949574;29;20031;-74
2022/10/02 10:55:39;;;;;;;0.30;0.30;;;;;;;15.73;78.33;99521.41;4933705;29;20036;-73
2022/10/02 10:58:20;;;;;;;0.30;0.30;;;;;;;15.92;78.21;99520.56;4949264;29;20047;-73
2022/10/02 11:01:17;;;;;;;0.30;0.30;;;;;;;15.94;76.20;99518.75;4933667;29;20031;-73
2022/10/02 11:03:58;;;;;;;0.30;0.30;;;;;;;15.95;76.56;99520.44;4949179;29;20031;-73
2022/10/02 11:06:51;;;;;;;0.52;0.52;;;;;;;16.00;77.82;99531.56;4966859;28;20050;-72
2022/10/02 11:09:59;;;;;;;0.40;0.40;;;;;;;15.88;74.09;99534.72;4987788;28;20047;-73
2022/10/02 11:12:38;;;;;;;0.30;0.30;;;;;;;15.72;76.01;99533.63;4984489;28;20042;-73
2022/10/02 11:15:18;;;;;;;0.30;0.30;;;;;;;15.64;76.72;99533.09;5022407;28;20116;-73
2022/10/02 11:17:59;;;;;;;0.40;0.40;;;;;;;15.65;77.56;99544.44;5068645;28;20025;-73
2022/10/02 11:20:45;;;;;;;0.40;0.40;;;;;;;15.76;77.72;99549.19;5050263;28;20389;-73
2022/10/02 11:23:43;;;;;;;0.30;0.30;;;;;;;15.69;77.45;99559.06;5068704;28;20028;-72
2022/10/02 11:26:20;;;;;;;0.40;0.40;;;;;;;15.53;75.00;99564.13;4987595;28;20049;-73
2022/10/02 11:28:55;;;;;;;0.30;0.30;;;;;;;15.41;76.54;99573.34;4987478;28;20031;-73
2022/10/02 11:31:45;;;;;;;0.30;0.30;;;;;;;15.28;76.42;99580.84;4987323;28;20041;-74
2022/10/02 11:34:18;;;;;;;0.30;0.30;;;;;;;15.25;76.64;99568.75;4987086;28;20086;-72
2022/10/02 11:36:44;;;;;;;0.35;0.35;;;;;;;15.24;78.03;99578.34;4987048;28;20039;-72
2022/10/02 11:39:43;;;;;;;0.30;0.30;;;;;;;15.25;77.47;99581.81;4987106;28;20467;-75
2022/10/02 11:42:19;;;;;;;0.30;0.30;;;;;;;15.20;77.79;99583.78;4987382;28;20077;-74
2022/10/02 11:45:14;;;;;;;0.30;0.30;;;;;;;15.17;76.76;99594.34;4987177;28;20043;-73
2022/10/02 11:48:21;;;;;;;0.30;0.30;;;;;;;15.14;76.78;99600.56;4987146;28;20062;-72
2022/10/02 11:51:22;;;;;;;0.30;0.30;;;;;;;15.07;76.88;99607.81;4986644;28;20039;-73
2022/10/02 11:54:05;;;;;;;0.40;0.40;;;;;;;15.02;76.77;99607.13;4971636;28;20031;-73
2022/10/02 11:56:55;;;;;;;0.40;0.40;;;;;;;14.93;76.12;99607.50;4987039;28;20035;-74
2022/10/02 11:59:32;;;;;;;0.40;0.40;;;;;;;14.87;76.40;99611.22;4986195;28;20035;-73
2022/10/02 12:02:21;;;;;;;0.30;0.30;;;;;;;14.79;75.61;99618.47;4992158;28;20063;-73
2022/10/02 12:05:14;;;;;;;0.38;0.38;;;;;;;14.68;75.37;99622.31;5067827;28;20052;-68
2022/10/02 12:07:58;;;;;;;0.30;0.30;;;;;;;14.63;75.11;99619.88;5067845;28;20028;-65
2022/10/02 12:10:40;;;;;;;0.30;0.30;;;;;;;14.73;74.63;99619.53;5067923;28;20053;-70
2022/10/02 12:13:15;;;;;;;0.40;0.40;;;;;;;14.92;75.30;99624.94;5067893;28;20381;-65
2022/10/02 12:15:48;;;;;;;0.30;0.30;;;;;;;15.01;75.49;99634.19;5067941;28;20020;-66
2022/10/02 12:18:28;;;;;;;0.20;0.20;;;;;;;15.04;74.52;99639.28;5067756;28;20024;-65
2022/10/02 12:27:17;;;;;;;0.30;0.30;;;;;;;15.34;75.22;99646.81;5067988;28;20276;-65
2022/10/02 12:29:48;;;;;;;0.40;0.40;;;;;;;15.33;74.71;99644.25;5067557;28;20060;-65
2022/10/02 12:32:21;;;;;;;0.40;0.40;;;;;;;15.29;74.72;99655.78;5067570;28;20338;-66
2022/10/02 12:35:04;;;;;;;0.38;0.38;;;;;;;15.23;74.25;99656.84;5067543;28;20035;-66
2022/10/02 12:37:42;;;;;;;8.48;4.20;;;;;;;15.23;73.72;99659.47;5067341;28;20025;-69
2022/10/02 12:40:30;;;;;;;0.30;0.30;;;;;;;15.24;74.67;99662.03;5067256;28;20017;-67
2022/10/02 12:43:16;;;;;;;0.30;0.30;;;;;;;15.27;74.80;99671.50;5067403;28;20020;-67
2022/10/02 12:45:59;;;;;;;0.30;0.30;;;;;;;15.39;74.90;99669.31;5067191;28;20100;-67